Havelock, Nebraska
Current Conditions -  °F | °C
As of 2:54 AM on Thursday 23 Oct 2014 (Local Time) from KLNK Reporting Station
Overcast Overcast  
Wind Chill: 62°   Ceiling: 1400
Heat Index: 62°   Visibility: 9mi
Dew Point: 58°   Wind: 5mph
Humidity: 86%   Direction: 230°SW
Pressure: 30.05"   Gusts: NA
Location:  40.8505°N, 96.6337°W
Report Text: KLNK 230754Z AUTO 23004KT 9SM BKN014 OVC025 17/14 A3005 RMK AO2 SLP167 T01670144
Loading
Personal Weather Stations






























Interactive Weather Map New forecast layout! Learn more

10-Day Weather Forecast

Advertisements
Track Severe Weather on mobile